PWSweather.com
Personal Weather Stations
Station Observations
KOMOKA2
Middlesex Centre, Komoka, ON N0L 1R0

Middlesex CentreKomoka, ON N0L 1R0

Lat: 42.9542444, Lon: -81.4348861

Elevation: 805

Station Type: Davis VP2 w/ Vue Console

Latest ConditionsUpdated 3:05:25 AM EDT Friday, Jun 22, 2018
Currently Today's Max Today's Min Today's Average
Temperature 59.6°F15.3°C 62.2°F16.8°C 59.6°F15.3°C 60.9°F16.1°C
Dew Point 43.0°F6.1°C 44.0°F6.7°C 42.0°F5.6°C 42.7°F5.9°C
Winds 1.0 mph NE1.6 kmh NE 9.0 mph -14.5 kmh - - 2.4 mph 3.9 kmh
Wind Gusts 6.0 mph9.7 kmh 10.0 mph16.1 kmh - -
Humidity 54% 55% 48% 51%
Pressure 29.86 in1011.2 mb 29.88 in1011.9 mb 29.85 in1010.8 mb -
Hour Temp Dew Point Humidity Winds Wind Gusts Pressure Precip Precip Rate Daily Precip Total
03:05 AM 59.6°F15.3°C 43.0°F6.1°C 54% 1.0 mph NE1.6 kmh NE 6.0 mph9.7 kmh 29.86 in1011.2 mb 0.00 in0.0 mm 0.00 in0.0 mm 0.00 in0.0 mm
03:00 AM 59.7°F15.4°C 43.0°F6.1°C 55% 3.0 mph SE4.8 kmh SE 5.0 mph8.0 kmh 29.86 in1011.2 mb 0.00 in0.0 mm 0.00 in0.0 mm 0.00 in0.0 mm
02:55 AM 59.8°F15.4°C 42.0°F5.6°C 53% 2.0 mph NE3.2 kmh NE 4.0 mph6.4 kmh 29.86 in1011.2 mb 0.00 in0.0 mm 0.00 in0.0 mm 0.00 in0.0 mm
02:50 AM 59.9°F15.5°C 43.0°F6.1°C 53% 2.0 mph NE3.2 kmh NE 9.0 mph14.5 kmh 29.86 in1011.2 mb 0.00 in0.0 mm 0.00 in0.0 mm 0.00 in0.0 mm
02:45 AM 59.8°F15.4°C 43.0°F6.1°C 54% Calm Calm 9.0 mph14.5 kmh 29.85 in1010.8 mb 0.00 in0.0 mm 0.00 in0.0 mm 0.00 in0.0 mm
02:40 AM 60.1°F15.6°C 43.0°F6.1°C 54% 1.0 mph NNE1.6 kmh NNE 10.0 mph16.1 kmh 29.86 in1011.2 mb 0.00 in0.0 mm 0.00 in0.0 mm 0.00 in0.0 mm
02:35 AM 60.0°F15.6°C 43.0°F6.1°C 53% 5.0 mph NE8.0 kmh NE 10.0 mph16.1 kmh 29.86 in1011.2 mb 0.00 in0.0 mm 0.00 in0.0 mm 0.00 in0.0 mm
02:30 AM 59.9°F15.5°C 43.0°F6.1°C 54% 2.0 mph E3.2 kmh E 6.0 mph9.7 kmh 29.86 in1011.2 mb 0.00 in0.0 mm 0.00 in0.0 mm 0.00 in0.0 mm
02:25 AM 60.0°F15.6°C 43.0°F6.1°C 53% 4.0 mph N6.4 kmh N 9.0 mph14.5 kmh 29.86 in1011.2 mb 0.00 in0.0 mm 0.00 in0.0 mm 0.00 in0.0 mm
02:20 AM 59.9°F15.5°C 43.0°F6.1°C 54% 9.0 mph NE14.5 kmh NE 9.0 mph14.5 kmh 29.86 in1011.2 mb 0.00 in0.0 mm 0.00 in0.0 mm 0.00 in0.0 mm
02:15 AM 60.2°F15.7°C 43.0°F6.1°C 53% Calm Calm 7.0 mph11.3 kmh 29.86 in1011.2 mb 0.00 in0.0 mm 0.00 in0.0 mm 0.00 in0.0 mm
02:10 AM 60.3°F15.7°C 42.0°F5.6°C 52% Calm Calm 8.0 mph12.9 kmh 29.86 in1011.2 mb 0.00 in0.0 mm 0.00 in0.0 mm 0.00 in0.0 mm
02:05 AM 60.5°F15.8°C 43.0°F6.1°C 53% 2.0 mph NE3.2 kmh NE 8.0 mph12.9 kmh 29.86 in1011.2 mb 0.00 in0.0 mm 0.00 in0.0 mm 0.00 in0.0 mm
02:00 AM 60.5°F15.8°C 43.0°F6.1°C 52% 2.0 mph N3.2 kmh N 7.0 mph11.3 kmh 29.86 in1011.2 mb 0.00 in0.0 mm 0.00 in0.0 mm 0.00 in0.0 mm
01:55 AM 60.5°F15.8°C 43.0°F6.1°C 52% 1.0 mph E1.6 kmh E 7.0 mph11.3 kmh 29.86 in1011.2 mb 0.00 in0.0 mm 0.00 in0.0 mm 0.00 in0.0 mm
01:50 AM 60.5°F15.8°C 43.0°F6.1°C 52% 1.0 mph NE1.6 kmh NE 6.0 mph9.7 kmh 29.86 in1011.2 mb 0.00 in0.0 mm 0.00 in0.0 mm 0.00 in0.0 mm
01:45 AM 60.5°F15.8°C 43.0°F6.1°C 52% 5.0 mph NE8.0 kmh NE 8.0 mph12.9 kmh 29.86 in1011.2 mb 0.00 in0.0 mm 0.00 in0.0 mm 0.00 in0.0 mm
01:40 AM 60.7°F15.9°C 43.0°F6.1°C 52% 1.0 mph NE1.6 kmh NE 9.0 mph14.5 kmh 29.86 in1011.2 mb 0.00 in0.0 mm 0.00 in0.0 mm 0.00 in0.0 mm
01:35 AM 60.5°F15.8°C 43.0°F6.1°C 52% 5.0 mph NNW8.0 kmh NNW 5.0 mph8.0 kmh 29.86 in1011.2 mb 0.00 in0.0 mm 0.00 in0.0 mm 0.00 in0.0 mm
01:30 AM 60.8°F16.0°C 43.0°F6.1°C 53% 1.0 mph S1.6 kmh S 5.0 mph8.0 kmh 29.87 in1011.5 mb 0.00 in0.0 mm 0.00 in0.0 mm 0.00 in0.0 mm
01:25 AM 60.8°F16.0°C 43.0°F6.1°C 52% 2.0 mph ENE3.2 kmh ENE 8.0 mph12.9 kmh 29.87 in1011.5 mb 0.00 in0.0 mm 0.00 in0.0 mm 0.00 in0.0 mm
01:20 AM 61.1°F16.2°C 43.0°F6.1°C 51% 3.0 mph NE4.8 kmh NE 8.0 mph12.9 kmh 29.87 in1011.5 mb 0.00 in0.0 mm 0.00 in0.0 mm 0.00 in0.0 mm
01:15 AM 61.1°F16.2°C 43.0°F6.1°C 51% 5.0 mph N8.0 kmh N 10.0 mph16.1 kmh 29.87 in1011.5 mb 0.00 in0.0 mm 0.00 in0.0 mm 0.00 in0.0 mm
01:10 AM 61.2°F16.2°C 43.0°F6.1°C 51% 1.0 mph NNE1.6 kmh NNE 10.0 mph16.1 kmh 29.87 in1011.5 mb 0.00 in0.0 mm 0.00 in0.0 mm 0.00 in0.0 mm
01:05 AM 61.4°F16.3°C 42.0°F5.6°C 50% 1.0 mph NE1.6 kmh NE 7.0 mph11.3 kmh 29.87 in1011.5 mb 0.00 in0.0 mm 0.00 in0.0 mm 0.00 in0.0 mm
01:00 AM 61.4°F16.3°C 42.0°F5.6°C 50% 4.0 mph NNE6.4 kmh NNE 10.0 mph16.1 kmh 29.87 in1011.5 mb 0.00 in0.0 mm 0.00 in0.0 mm 0.00 in0.0 mm
12:55 AM 61.5°F16.4°C 43.0°F6.1°C 50% 3.0 mph NW4.8 kmh NW 9.0 mph14.5 kmh 29.87 in1011.5 mb 0.00 in0.0 mm 0.00 in0.0 mm 0.00 in0.0 mm
12:50 AM 61.5°F16.4°C 43.0°F6.1°C 50% 1.0 mph E1.6 kmh E 6.0 mph9.7 kmh 29.87 in1011.5 mb 0.00 in0.0 mm 0.00 in0.0 mm 0.00 in0.0 mm
12:45 AM 61.7°F16.5°C 42.0°F5.6°C 49% 3.0 mph N4.8 kmh N 6.0 mph9.7 kmh 29.87 in1011.5 mb 0.00 in0.0 mm 0.00 in0.0 mm 0.00 in0.0 mm
12:40 AM 62.0°F16.7°C 42.0°F5.6°C 49% 3.0 mph NNE4.8 kmh NNE 9.0 mph14.5 kmh 29.87 in1011.5 mb 0.00 in0.0 mm 0.00 in0.0 mm 0.00 in0.0 mm
12:35 AM 62.1°F16.7°C 43.0°F6.1°C 49% 1.0 mph N1.6 kmh N 8.0 mph12.9 kmh 29.87 in1011.5 mb 0.00 in0.0 mm 0.00 in0.0 mm 0.00 in0.0 mm
12:30 AM 62.1°F16.7°C 43.0°F6.1°C 49% 5.0 mph N8.0 kmh N 7.0 mph11.3 kmh 29.87 in1011.5 mb 0.00 in0.0 mm 0.00 in0.0 mm 0.00 in0.0 mm
12:25 AM 62.1°F16.7°C 42.0°F5.6°C 48% 1.0 mph NE1.6 kmh NE 8.0 mph12.9 kmh 29.88 in1011.9 mb 0.00 in0.0 mm 0.00 in0.0 mm 0.00 in0.0 mm
12:20 AM 62.1°F16.7°C 42.0°F5.6°C 48% 1.0 mph N1.6 kmh N 7.0 mph11.3 kmh 29.88 in1011.9 mb 0.00 in0.0 mm 0.00 in0.0 mm 0.00 in0.0 mm
12:15 AM 62.2°F16.8°C 42.0°F5.6°C 48% 3.0 mph NE4.8 kmh NE 9.0 mph14.5 kmh 29.87 in1011.5 mb 0.00 in0.0 mm 0.00 in0.0 mm 0.00 in0.0 mm
12:10 AM 62.1°F16.7°C 42.0°F5.6°C 48% 3.0 mph NE4.8 kmh NE 8.0 mph12.9 kmh 29.88 in1011.9 mb 0.00 in0.0 mm 0.00 in0.0 mm 0.00 in0.0 mm
12:05 AM 62.1°F16.7°C 42.0°F5.6°C 48% 4.0 mph ENE6.4 kmh ENE 8.0 mph12.9 kmh 29.88 in1011.9 mb 0.00 in0.0 mm 0.00 in0.0 mm 0.00 in0.0 mm
12:00 AM 62.1°F16.7°C 44.0°F6.7°C 51% 2.0 mph NE3.2 kmh NE 6.0 mph9.7 kmh 29.87 in1011.5 mb 0.00 in0.0 mm 0.00 in0.0 mm 0.00 in0.0 mm